Flight Track Log - Related Links

Times and Time Zones

All times are in EDT time to prevent confusion due to time zone crossing. See the WEW1540 flight status page for this flight to view local times or setup timezone preferences in your user account.

Time Position Orientation Groundspeed Altitude Reporting Facility
EDT Latitude Longitude Course Direction KTS MPH feet Rate Location/Type
Tue 09:23:00 AM 50.6550 -108.1151 323° Northwest  Level FlightAware Approximate
Tue 09:24:00 AM 50.6858 -108.1517 323° Northwest  Level FlightAware Approximate
Tue 09:25:00 AM 50.7166 -108.1884 323° Northwest  Level FlightAware Approximate
Tue 09:26:00 AM 50.7473 -108.2251 323° Northwest  Level FlightAware Approximate
Tue 09:27:00 AM 50.7781 -108.2619 323° Northwest  Level FlightAware Approximate
Tue 09:28:00 AM 50.8088 -108.2987 323° Northwest  Level FlightAware Approximate
Tue 09:29:00 AM 50.8395 -108.3356 323° Northwest  Level FlightAware Approximate
Tue 09:30:00 AM 50.8702 -108.3726 323° Northwest  Level FlightAware Approximate
Tue 09:31:00 AM 50.9009 -108.4095 323° Northwest  Level FlightAware Approximate
Tue 09:32:00 AM 50.9316 -108.4466 323° Northwest  Level FlightAware Approximate
Tue 09:33:00 AM 50.9623 -108.4836 323° Northwest  Level FlightAware Approximate
Tue 09:34:00 AM 50.9929 -108.5208 323° Northwest  Level FlightAware Approximate
Tue 09:35:00 AM 51.0236 -108.5579 323° Northwest  Level FlightAware Approximate
Tue 09:36:00 AM 51.0542 -108.5952 323° Northwest  Level FlightAware Approximate
Tue 09:37:00 AM 51.0848 -108.6324 323° Northwest  Level FlightAware Approximate
Tue 09:38:00 AM 51.1155 -108.6697 323° Northwest  Level FlightAware Approximate
Tue 09:39:00 AM 51.1460 -108.7071 323° Northwest  Level FlightAware Approximate
Tue 09:40:00 AM 51.1766 -108.7445 323° Northwest  Level FlightAware Approximate
Tue 09:41:00 AM 51.2072 -108.7820 322° Northwest  Level FlightAware Approximate
Tue 09:42:00 AM 51.2378 -108.8195 322° Northwest  Level FlightAware Approximate
Tue 09:43:00 AM 51.2683 -108.8571 322° Northwest  Level FlightAware Approximate
Tue 09:44:00 AM 51.2989 -108.8947 322° Northwest  Level FlightAware Approximate
Tue 09:45:00 AM 51.3267 -108.9368 309° West  Level FlightAware Approximate
Tue 09:46:00 AM 51.3510 -108.9846 323° Northwest  Level FlightAware Approximate
Tue 09:47:00 AM 51.3817 -109.0220 323° Northwest  Level FlightAware Approximate
Tue 09:48:00 AM 51.4124 -109.0594 323° Northwest  Level FlightAware Approximate
Tue 09:49:00 AM 51.4431 -109.0969 323° Northwest  Level FlightAware Approximate
Tue 09:50:00 AM 51.4737 -109.1344 323° Northwest  Level FlightAware Approximate
Tue 09:51:00 AM 51.5000 -109.1667 323° Northwest  Level FlightAware Approximate
Tue 09:52:00 AM 51.5175 -109.1808 323° Northwest  Level Estimated
Tue 09:53:00 AM 51.5175 -109.1808 323° Northwest  Level Estimated
Tue 09:54:00 AM 51.5175 -109.1808 323° Northwest  Level Estimated
Tue 09:55:00 AM 51.5175 -109.1808 323° Northwest  Level Estimated
Tue 09:56:00 AM 51.5175 -109.1808 323° Northwest  Level Estimated
Tue 09:57:00 AM 51.5175 -109.1808 323° Northwest  Level Estimated
Tue 09:58:00 AM 51.5175 -109.1808 323° Northwest  Level Estimated
Tue 09:59:00 AM 51.5175 -109.1808 323° Northwest  Level Estimated
Tue 10:00:00 AM 51.5175 -109.1808 323° Northwest  Level Estimated
Tue 10:01:00 AM 51.5175 -109.1808 323° Northwest  Level Estimated
Tue 10:02:00 AM 51.5175 -109.1808 323° Northwest  Level Estimated
Tue 10:03:00 AM 51.5175 -109.1808 323° Northwest  Level Estimated
Tue 10:04:00 AM 51.5175 -109.1808 323° Northwest  Level Estimated
Tue 10:05:00 AM 51.5175 -109.1808 323° Northwest  Level Estimated
Tue 10:06:00 AM 51.5175 -109.1808 323° Northwest  Level Estimated

Login

Don't have an account? Register now (free) for customized features, flight alerts, and more!